Thunderstorms From: 26-05-2018 09:00 Until: 27-05-2018 05:00 warning for: Thunderstorms Level: Yellow info button

Although rather usual in this region, locally or potentially dangerous phenomena are expected. (such as local winds, summer thunderstorms, rising streams or high waves) Be aware and pay attention to the latest weather updates, especially if you carry out activities exposed to weather or close to a stream or shoreline. 


Meteo18 Weather Cam more information Meteo18 Weather Cam


warning for Thunderstorms more information blitzortung!


Rain radar more information rain snow radar


Visit our other weather sites:

Template documentation
and downloads

And another site



Weather Underground History page Text

Daily Summary for August 11, 2017 Units:  Metric    English   Both
« Previous Day
Next Day »
Daily Weekly Monthly Yearly Custom
  High: Low: Average:
Temperature: -17.8 °C -12.2 °C -9.7 °C
Dew Point: -17.8 °C -12.4 °C -11.4 °C
Humidity: Humidity % 58 % 83 %
Wind Speed: 0 km/h 0 km/h 4.5 km/h
Wind Gust: 0 km/h - -
Wind:- - WSW
Pressure: 0 hPa 34554.1 hPa -
Precipitation: 7.62 mm    
Historical Graphs
 
 
Tabular Data for August 11, 2017
Time Temperature Dew Point Pressure Wind Wind Speed Wind Gust Humidity Rainfall Rate (Hourly)
-17.8 °C -17.8 °C 0 hPa Calm     Humidity % 0 mm
00:02 -10.9 °C -11.5 °C 34591.4 hPa Calm   2.6 km/h 93 % 0 mm
00:12 -11.1 °C -11.7 °C 34591.4 hPa Calm   2.6 km/h 93 % 0 mm
00:17 -11.2 °C -11.7 °C 34591.4 hPa Calm   2.6 km/h 94 % 0 mm
00:22 -11.2 °C -11.7 °C 34591.4 hPa Calm   2.6 km/h 94 % 0 mm
00:27 -11.2 °C -11.7 °C 34591.4 hPa Calm   2.6 km/h 94 % 0 mm
00:32 -11.3 °C -11.8 °C 34591.4 hPa Calm   2.6 km/h 94 % 0 mm
00:42 -11.3 °C -11.8 °C 34591.4 hPa Calm   2.6 km/h 94 % 0 mm
00:47 -11.3 °C -11.8 °C 34591.4 hPa Calm   2.6 km/h 95 % 0 mm
00:52 -11.3 °C -11.8 °C 34591.4 hPa Calm     95 % 0 mm
00:57 -11.4 °C -11.9 °C 34591.4 hPa Calm     95 % 0 mm
01:02 -11.5 °C -12 °C 34591.4 hPa Calm     94 % 0 mm
01:12 -11.6 °C -12 °C 34577.8 hPa Calm     95 % 0 mm
01:17 -11.6 °C -12 °C 34591.4 hPa Calm     95 % 0 mm
01:22 -11.6 °C -12 °C 34577.8 hPa Calm     95 % 0 mm
01:27 -11.6 °C -12 °C 34577.8 hPa Calm     95 % 0 mm
01:32 -11.5 °C -11.8 °C 34577.8 hPa Calm   5.1 km/h 96 % 0 mm
01:37 -11.5 °C -11.8 °C 34577.8 hPa WNW 2.6 km/h 5.1 km/h 96 % 0 mm
01:42 -11.4 °C -11.8 °C 34577.8 hPa Calm   5.1 km/h 96 % 0 mm
01:52 -11.4 °C -11.9 °C 34577.8 hPa West 2.6 km/h 5.1 km/h 95 % 0 mm
01:57 -11.5 °C -11.9 °C 34577.8 hPa Calm   5.1 km/h 95 % 0 mm
02:02 -11.5 °C -11.9 °C 34577.8 hPa Calm   5.1 km/h 95 % 0 mm
02:07 -11.5 °C -11.8 °C 34577.8 hPa NNE 2.6 km/h 2.6 km/h 96 % 0 mm
02:12 -11.5 °C -11.8 °C 34577.8 hPa Calm   2.6 km/h 96 % 0 mm
02:17 -11.6 °C -12.1 °C 34577.8 hPa Calm   2.6 km/h 95 % 0 mm
02:22 -11.6 °C -11.9 °C 34577.8 hPa Calm   2.6 km/h 96 % 0 mm
02:27 -11.6 °C -11.9 °C 34577.8 hPa Calm   2.6 km/h 96 % 0 mm
02:32 -11.6 °C -11.9 °C 34577.8 hPa Calm   2.6 km/h 96 % 0 mm
02:37 -11.7 °C -12.2 °C 34577.8 hPa Calm     95 % 0 mm
02:42 -11.8 °C -12.1 °C 34591.4 hPa Calm     96 % 0 mm
02:47 -11.9 °C -12.3 °C 34577.8 hPa Calm   2.6 km/h 95 % 0 mm
02:52 -11.9 °C -12.2 °C 34577.8 hPa Calm   2.6 km/h 96 % 0 mm
02:57 -11.8 °C -12.1 °C 34577.8 hPa Calm   2.6 km/h 97 % 0 mm
03:02 -11.7 °C -12.1 °C 34591.4 hPa Calm   2.6 km/h 96 % 0 mm
03:12 -11.8 °C -12.1 °C 34577.8 hPa Calm   2.6 km/h 96 % 0 mm
03:17 -11.8 °C -12.2 °C 34577.8 hPa Calm   2.6 km/h 96 % 0 mm
03:22 -12 °C -12.4 °C 34577.8 hPa WNW 5.1 km/h 5.1 km/h 95 % 0 mm
03:27 -12.1 °C -12.4 °C 34577.8 hPa NW 2.6 km/h 5.1 km/h 96 % 0 mm
03:32 -11.9 °C -12.3 °C 34577.8 hPa WNW 2.6 km/h 7.7 km/h 96 % 0 mm
03:37 -11.8 °C -12.1 °C 34577.8 hPa WNW 2.6 km/h 7.7 km/h 97 % 0 mm
03:42 -11.8 °C -12.2 °C 34577.8 hPa Calm   7.7 km/h 96 % 0 mm
03:47 -11.8 °C -12.2 °C 34577.8 hPa WNW 2.6 km/h 5.1 km/h 96 % 0 mm
03:52 -11.8 °C -12.2 °C 34567.7 hPa Calm   5.1 km/h 96 % 0 mm
03:57 -11.9 °C -12.2 °C 34567.7 hPa Calm   5.1 km/h 96 % 0 mm
04:02 -11.9 °C -12.2 °C 34567.7 hPa Calm   5.1 km/h 96 % 0 mm
04:07 -11.9 °C -12.2 °C 34567.7 hPa Calm   2.6 km/h 96 % 0 mm
04:12 -11.9 °C -12.2 °C 34567.7 hPa Calm     96 % 0 mm
04:17 -11.9 °C -12.2 °C 34567.7 hPa Calm     96 % 0 mm
04:22 -11.9 °C -12.3 °C 34567.7 hPa Calm     96 % 0 mm
04:27 -12 °C -12.3 °C 34567.7 hPa Calm     96 % 0 mm
04:32 -12.1 °C -12.4 °C 34567.7 hPa Calm   2.6 km/h 96 % 0 mm
04:37 -12 °C -12.3 °C 34567.7 hPa Calm   2.6 km/h 96 % 0 mm
04:42 -12.1 °C -12.4 °C 34567.7 hPa SSE 2.6 km/h 2.6 km/h 96 % 0 mm
04:47 -12.1 °C -12.4 °C 34567.7 hPa Calm   2.6 km/h 96 % 0 mm
04:52 -12.1 °C -12.4 °C 34567.7 hPa Calm   2.6 km/h 96 % 7.62 mm
05:02 -12 °C -12.3 °C 34567.7 hPa Calm   2.6 km/h 97 % 7.62 mm
05:07 -12.1 °C -12.3 °C 34567.7 hPa Calm     97 % 7.62 mm
05:12 -12.1 °C -12.3 °C 34554.1 hPa Calm     97 % 7.62 mm
05:22 -12.1 °C -12.4 °C 34554.1 hPa Calm     96 % 7.62 mm
05:32 -12.1 °C -12.3 °C 34554.1 hPa Calm     97 % 7.62 mm
05:42 -12.1 °C -12.4 °C 34554.1 hPa Calm     97 % 7.62 mm
05:47 -12.2 °C -12.4 °C 34554.1 hPa WNW 5.1 km/h 5.1 km/h 97 % 7.62 mm
05:52 -12.2 °C -12.4 °C 34554.1 hPa NW 5.1 km/h 5.1 km/h 97 % 0 mm
05:57 -12.1 °C -12.4 °C 34554.1 hPa WNW 2.6 km/h 10.3 km/h 97 % 0 mm
06:02 -12.1 °C -12.4 °C 34554.1 hPa Calm   10.3 km/h 97 % 0 mm
06:12 -12.1 °C -12.4 °C 34554.1 hPa Calm   10.3 km/h 97 % 0 mm
06:17 -12.1 °C -12.4 °C 34554.1 hPa Calm   7.7 km/h 97 % 0 mm
06:22 -12.1 °C -12.4 °C 34554.1 hPa Calm   7.7 km/h 97 % 0 mm
06:27 -12.1 °C -12.3 °C 34567.7 hPa NW 2.6 km/h 5.1 km/h 97 % 0 mm
06:32 -12 °C -12.3 °C 34567.7 hPa NW 7.7 km/h 7.7 km/h 97 % 0 mm
06:42 -11.8 °C -12.1 °C 34567.7 hPa WNW 2.6 km/h 18.2 km/h 97 % 0 mm
06:52 -11.8 °C -12.1 °C 34567.7 hPa Calm   18.2 km/h 97 % 0 mm
07:02 -11.7 °C -12 °C 34567.7 hPa NNW 10.3 km/h 10.3 km/h 97 % 0 mm
07:12 -11.6 °C -11.9 °C 34577.8 hPa West 5.1 km/h 10.3 km/h 97 % 0 mm
07:22 -11.5 °C -11.8 °C 34577.8 hPa NNE 12.9 km/h 15.6 km/h 97 % 0 mm
07:32 -11.5 °C -11.8 °C 34577.8 hPa NNE 7.7 km/h 18.2 km/h 97 % 0 mm
07:42 -11.4 °C -11.7 °C 34577.8 hPa North 7.7 km/h 18.2 km/h 97 % 0 mm
07:47 -11.4 °C -11.7 °C 34577.8 hPa Calm   12.9 km/h 97 % 0 mm
07:52 -11.3 °C -11.6 °C 34577.8 hPa NNW 2.6 km/h 12.9 km/h 97 % 0 mm
07:57 -11.3 °C -11.6 °C 34577.8 hPa Calm   7.7 km/h 97 % 0 mm
08:02 -11.3 °C -11.6 °C 34577.8 hPa North 7.7 km/h 7.7 km/h 97 % 0 mm
08:12 -11.2 °C -11.5 °C 34577.8 hPa WNW 2.6 km/h 7.7 km/h 97 % 0 mm
08:17 -11.2 °C -11.5 °C 34577.8 hPa WNW 7.7 km/h 7.7 km/h 97 % 0 mm
08:22 -11.2 °C -11.4 °C 34577.8 hPa West 2.6 km/h 7.7 km/h 97 % 0 mm
08:32 -11 °C -11.3 °C 34577.8 hPa Calm   7.7 km/h 97 % 0 mm
08:42 -10.9 °C -11.2 °C 34577.8 hPa North 2.6 km/h 7.7 km/h 97 % 0 mm
08:52 -10.8 °C -11.1 °C 34577.8 hPa NW 7.7 km/h 10.3 km/h 97 % 0 mm
08:57 -10.7 °C -11 °C 34577.8 hPa WNW 12.9 km/h 15.6 km/h 97 % 0 mm
09:02 -10.7 °C -11.1 °C 34577.8 hPa NW 5.1 km/h 15.6 km/h 96 % 0 mm
09:12 -10.7 °C -11.1 °C 34591.4 hPa WNW 10.3 km/h 15.6 km/h 95 % 0 mm
09:17 -10.7 °C -11.2 °C 34591.4 hPa WNW 7.7 km/h 20.8 km/h 95 % 0 mm
09:27 -10.7 °C -11.1 °C 34591.4 hPa WNW 7.7 km/h 15.6 km/h 95 % 0 mm
09:32 -10.7 °C -11.1 °C 34591.4 hPa NW 2.6 km/h 15.6 km/h 95 % 0 mm
09:37 -10.6 °C -11 °C 34591.4 hPa NW 2.6 km/h 10.3 km/h 95 % 0 mm
09:42 -10.4 °C -10.8 °C 34591.4 hPa Calm   10.3 km/h 95 % 0 mm
09:47 -10.3 °C -10.8 °C 34591.4 hPa WNW 7.7 km/h 7.7 km/h 94 % 0 mm
09:52 -10.2 °C -10.8 °C 34591.4 hPa NNW 5.1 km/h 7.7 km/h 93 % 0 mm
10:02 -10.1 °C -10.8 °C 34591.4 hPa WNW 10.3 km/h 12.9 km/h 92 % 0 mm
10:07 -10.1 °C -10.8 °C 34601.5 hPa WNW 7.7 km/h 12.9 km/h 91 % 0 mm
10:12 -9.9 °C -10.7 °C 34601.5 hPa NW 7.7 km/h 12.9 km/h 91 % 0 mm
10:17 -9.8 °C -10.7 °C 34601.5 hPa NW 10.3 km/h 15.6 km/h 90 % 0 mm
10:22 -9.6 °C -10.6 °C 34591.4 hPa NNW 5.1 km/h 15.6 km/h 89 % 0 mm
10:32 -9.4 °C -10.8 °C 34601.5 hPa NNE 15.6 km/h 20.8 km/h 85 % 0 mm
10:42 -9.6 °C -11.1 °C 34601.5 hPa WNW 12.9 km/h 23.3 km/h 84 % 0 mm
10:47 -9.7 °C -11.1 °C 34601.5 hPa NW 5.1 km/h 20.8 km/h 85 % 0 mm
10:52 -9.5 °C -11 °C 34601.5 hPa Calm   20.8 km/h 84 % 0 mm
10:57 -9.4 °C -10.9 °C 34601.5 hPa North 5.1 km/h 18.2 km/h 84 % 0 mm
11:02 -9.3 °C -10.9 °C 34601.5 hPa NW 2.6 km/h 18.2 km/h 83 % 0 mm
11:12 -9.3 °C -10.9 °C 34611.7 hPa WNW 2.6 km/h 15.6 km/h 83 % 0 mm
11:17 -9.2 °C -11 °C 34611.7 hPa NNW 5.1 km/h 15.6 km/h 81 % 0 mm
11:22 -9.3 °C -11 °C 34601.5 hPa NNE 5.1 km/h 15.6 km/h 82 % 0 mm
11:32 -9.1 °C -10.8 °C 34601.5 hPa Calm   15.6 km/h 82 % 0 mm
11:37 -8.8 °C -10.8 °C 34601.5 hPa NNW 5.1 km/h 10.3 km/h 79 % 0 mm
11:42 -8.7 °C -10.8 °C 34601.5 hPa NE 5.1 km/h 10.3 km/h 78 % 0 mm
11:47 -8.8 °C -10.9 °C 34611.7 hPa NE 10.3 km/h 15.6 km/h 78 % 0 mm
11:52 -8.8 °C -10.8 °C 34611.7 hPa North 5.1 km/h 15.6 km/h 80 % 0 mm
12:02 -8.7 °C -10.8 °C 34611.7 hPa NNE 5.1 km/h 20.8 km/h 78 % 0 mm
12:12 -8.7 °C -10.8 °C 34611.7 hPa NW 5.1 km/h 18.2 km/h 78 % 0 mm
12:17 -8.7 °C -10.8 °C 34611.7 hPa West 2.6 km/h 12.9 km/h 78 % 0 mm
12:22 -8.8 °C -10.8 °C 34611.7 hPa West 2.6 km/h 15.6 km/h 79 % 0 mm
12:32 -9.1 °C -10.9 °C 34611.7 hPa NE 5.1 km/h 18.2 km/h 81 % 0 mm
12:42 -9.3 °C -11 °C 34611.7 hPa NNW 2.6 km/h 18.2 km/h 82 % 0 mm
12:52 -8.8 °C -10.7 °C 34611.7 hPa ENE 2.6 km/h 12.9 km/h 80 % 0 mm
12:57 -8.6 °C -10.7 °C 34611.7 hPa NNW 10.3 km/h 20.8 km/h 78 % 0 mm
13:02 -8.6 °C -10.6 °C 34611.7 hPa Calm   20.8 km/h 79 % 0 mm
13:12 -8.7 °C -11 °C 34611.7 hPa NNW 5.1 km/h 15.6 km/h 76 % 0 mm
13:17 -8.4 °C -11 °C 34611.7 hPa NNW 10.3 km/h 15.6 km/h 74 % 0 mm
13:27 -8.4 °C -10.9 °C 34611.7 hPa NNW 2.6 km/h 20.8 km/h 75 % 0 mm
13:32 -8.2 °C -10.6 °C 34611.7 hPa NW 18.2 km/h 20.8 km/h 76 % 0 mm
13:42 -8.2 °C -10.9 °C 34611.7 hPa NW 12.9 km/h 20.8 km/h 73 % 0 mm
13:47 -8 °C -10.7 °C 34611.7 hPa NNW 7.7 km/h 20.8 km/h 73 % 0 mm
13:52 -7.9 °C -10.7 °C 34611.7 hPa NE 5.1 km/h 18.2 km/h 73 % 0 mm
13:57 -7.9 °C -10.6 °C 34611.7 hPa North 10.3 km/h 20.8 km/h 74 % 0 mm
14:02 -7.8 °C -10.8 °C 34611.7 hPa WNW 7.7 km/h 20.8 km/h 71 % 0 mm
14:12 -7.8 °C -10.8 °C 34611.7 hPa NW 2.6 km/h 25.9 km/h 71 % 0 mm
14:17 -7.7 °C -10.8 °C 34611.7 hPa North 7.7 km/h 25.9 km/h 70 % 0 mm
14:22 -7.9 °C -11.1 °C 34611.7 hPa NNE 5.1 km/h 28.5 km/h 69 % 0 mm
14:27 -8.1 °C -11.1 °C 34611.7 hPa NNW 20.8 km/h 28.5 km/h 70 % 0 mm
14:32 -8.1 °C -10.9 °C 34611.7 hPa WNW 18.2 km/h 28.5 km/h 72 % 0 mm
14:42 -7.9 °C -10.8 °C 34611.7 hPa WNW 15.6 km/h 28.5 km/h 71 % 0 mm
14:47 -7.8 °C -10.8 °C 34601.5 hPa West 12.9 km/h 28.5 km/h 71 % 0 mm
14:52 -7.7 °C -11.1 °C 34611.7 hPa NNW 7.7 km/h 28.5 km/h 68 % 0 mm
14:57 -7.7 °C -10.8 °C 34601.5 hPa NNW 7.7 km/h 28.5 km/h 70 % 0 mm
15:02 -7.7 °C -10.9 °C 34611.7 hPa NNE 5.1 km/h 20.8 km/h 69 % 0 mm
15:12 -7.6 °C -10.7 °C 34611.7 hPa NW 7.7 km/h 25.9 km/h 70 % 0 mm
15:17 -7.4 °C -10.7 °C 34611.7 hPa WNW 5.1 km/h 25.9 km/h 69 % 0 mm
15:22 -7.4 °C -11.1 °C 34611.7 hPa West 20.8 km/h 20.8 km/h 66 % 0 mm
15:27 -7.6 °C -10.9 °C 34611.7 hPa NNE 18.2 km/h 23.3 km/h 68 % 0 mm
15:32 -7.7 °C -11 °C 34611.7 hPa North 5.1 km/h 23.3 km/h 68 % 0 mm
15:42 -7.6 °C -11.2 °C 34611.7 hPa North 7.7 km/h 20.8 km/h 66 % 0 mm
15:52 -7.3 °C -11 °C 34601.5 hPa WSW 2.6 km/h 20.8 km/h 65 % 0 mm
15:57 -7.3 °C -11.3 °C 34601.5 hPa SW 2.6 km/h 15.6 km/h 63 % 0 mm
16:02 -7.2 °C -11.1 °C 34601.5 hPa NNW 2.6 km/h 15.6 km/h 64 % 0 mm
16:12 -7.1 °C -11.1 °C 34591.4 hPa NNE 5.1 km/h 12.9 km/h 63 % 0 mm
16:17 -6.9 °C -10.7 °C 34591.4 hPa WNW 7.7 km/h 20.8 km/h 65 % 0 mm
16:22 -7 °C -11.2 °C 34591.4 hPa West 2.6 km/h 20.8 km/h 62 % 0 mm
16:27 -6.9 °C -11.1 °C 34591.4 hPa WNW 2.6 km/h 18.2 km/h 62 % 0 mm
16:32 -6.9 °C -11.4 °C 34591.4 hPa NW 10.3 km/h 18.2 km/h 60 % 0 mm
16:42 -6.9 °C -10.9 °C 34591.4 hPa WNW 7.7 km/h 20.8 km/h 63 % 0 mm
16:47 -6.8 °C -11.3 °C 34591.4 hPa West 5.1 km/h 20.8 km/h 60 % 0 mm
16:52 -6.8 °C -11.1 °C 34591.4 hPa NNE 5.1 km/h 15.6 km/h 61 % 0 mm
16:57 -6.8 °C -11.2 °C 34591.4 hPa NW 5.1 km/h 15.6 km/h 60 % 0 mm
17:02 -7 °C -11.3 °C 34591.4 hPa WNW 5.1 km/h 15.6 km/h 61 % 0 mm
17:12 -6.8 °C -11.3 °C 34591.4 hPa West 5.1 km/h 12.9 km/h 60 % 0 mm
17:17 -6.9 °C -11.2 °C 34591.4 hPa Calm   7.7 km/h 61 % 0 mm
17:22 -6.9 °C -11.2 °C 34577.8 hPa Calm   7.7 km/h 61 % 0 mm
17:27 -6.8 °C -10.9 °C 34577.8 hPa Calm   7.7 km/h 62 % 0 mm
17:32 -6.7 °C -11 °C 34577.8 hPa Calm   2.6 km/h 61 % 0 mm
17:42 -6.9 °C -11.2 °C 34591.4 hPa West 5.1 km/h 12.9 km/h 61 % 0 mm
17:52 -6.8 °C -10.7 °C 34577.8 hPa NNE 2.6 km/h 15.6 km/h 64 % 0 mm
18:02 -7 °C -11 °C 34577.8 hPa NE 5.1 km/h 15.6 km/h 63 % 0 mm
18:12 -6.9 °C -11.2 °C 34591.4 hPa East 2.6 km/h 12.9 km/h 61 % 0 mm
18:17 -6.6 °C -11.1 °C 34591.4 hPa NNW 10.3 km/h 10.3 km/h 60 % 0 mm
18:22 -6.4 °C -11.2 °C 34591.4 hPa SW 12.9 km/h 12.9 km/h 58 % 0 mm
18:32 -6.4 °C -11.1 °C 34591.4 hPa NW 10.3 km/h 28.5 km/h 58 % 0 mm
18:42 -6.5 °C -11.2 °C 34591.4 hPa WNW 5.1 km/h 20.8 km/h 58 % 0 mm
18:47 -6.7 °C -11.2 °C 34591.4 hPa WNW 10.3 km/h 33.6 km/h 60 % 0 mm
18:52 -6.9 °C -11.1 °C 34591.4 hPa WNW 20.8 km/h 33.6 km/h 62 % 0 mm
18:57 -7.1 °C -10.8 °C 34591.4 hPa NW 15.6 km/h 33.6 km/h 65 % 0 mm
19:02 -7.2 °C -10.8 °C 34591.4 hPa WNW 10.3 km/h 25.9 km/h 66 % 0 mm
19:12 -7.3 °C -10.8 °C 34601.5 hPa NW 7.7 km/h 20.8 km/h 67 % 0 mm
19:17 -7.3 °C -10.8 °C 34601.5 hPa WNW 12.9 km/h 18.2 km/h 67 % 0 mm
19:22 -7.3 °C -10.7 °C 34601.5 hPa West 2.6 km/h 18.2 km/h 68 % 0 mm
19:32 -7.3 °C -10.6 °C 34601.5 hPa WNW 5.1 km/h 12.9 km/h 69 % 0 mm
19:42 -7.4 °C -10.7 °C 34591.4 hPa NW 5.1 km/h 18.2 km/h 68 % 0 mm
19:52 -7.1 °C -10.7 °C 34591.4 hPa West 10.3 km/h 23.3 km/h 66 % 0 mm
19:57 -7.1 °C -10.6 °C 34591.4 hPa WNW 5.1 km/h 25.9 km/h 67 % 0 mm
20:02 -7.2 °C -10.7 °C 34601.5 hPa NNW 10.3 km/h 25.9 km/h 67 % 0 mm
20:07 -7.3 °C -10.7 °C 34591.4 hPa WNW 20.8 km/h 25.9 km/h 68 % 0 mm
20:12 -7.5 °C -10.6 °C 34591.4 hPa West 10.3 km/h 33.6 km/h 70 % 0 mm
20:17 -7.6 °C -10.6 °C 34601.5 hPa WNW 23.3 km/h 33.6 km/h 71 % 0 mm
20:22 -7.7 °C -10.5 °C 34601.5 hPa West 10.3 km/h 33.6 km/h 72 % 0 mm
20:32 -7.8 °C -10.7 °C 34601.5 hPa NW 2.6 km/h 28.5 km/h 72 % 0 mm
20:42 -7.9 °C -10.6 °C 34601.5 hPa West 2.6 km/h 25.9 km/h 73 % 0 mm
20:52 -8 °C -10.6 °C 34611.7 hPa West 12.9 km/h 28.5 km/h 74 % 0 mm
21:02 -8.2 °C -10.6 °C 34611.7 hPa NW 5.1 km/h 20.8 km/h 76 % 0 mm
21:07 -8.2 °C -10.6 °C 34611.7 hPa WSW 2.6 km/h 20.8 km/h 76 % 0 mm
21:17 -8.4 °C -10.7 °C 34611.7 hPa Calm   20.8 km/h 77 % 0 mm
21:22 -8.4 °C -10.7 °C 34611.7 hPa NW 7.7 km/h 15.6 km/h 77 % 0 mm
21:32 -8.7 °C -10.7 °C 34611.7 hPa West 10.3 km/h 15.6 km/h 79 % 0 mm
21:42 -8.8 °C -10.8 °C 34611.7 hPa WNW 2.6 km/h 12.9 km/h 79 % 0 mm
21:47 -8.8 °C -10.8 °C 34611.7 hPa Calm   12.9 km/h 79 % 0 mm
21:52 -8.8 °C -10.8 °C 34611.7 hPa WNW 2.6 km/h 10.3 km/h 79 % 0 mm
21:57 -8.9 °C -10.9 °C 34625.2 hPa West 5.1 km/h 10.3 km/h 79 % 0 mm
22:02 -9.1 °C -11.1 °C 34625.2 hPa WNW 10.3 km/h 15.6 km/h 79 % 0 mm
22:07 -9.1 °C -11.1 °C 34625.2 hPa WNW 7.7 km/h 18.2 km/h 79 % 0 mm
22:17 -9.1 °C -11.2 °C 34635.4 hPa WNW 7.7 km/h 20.8 km/h 78 % 0 mm
22:22 -9.1 °C -11.1 °C 34635.4 hPa West 5.1 km/h 20.8 km/h 79 % 0 mm
22:32 -9.2 °C -11.2 °C 34635.4 hPa WNW 5.1 km/h 15.6 km/h 79 % 0 mm
22:42 -9.3 °C -11.2 °C 34635.4 hPa WNW 2.6 km/h 12.9 km/h 80 % 0 mm
22:52 -9.4 °C -11.2 °C 34635.4 hPa Calm   12.9 km/h 81 % 0 mm
23:02 -9.6 °C -11.2 °C 34635.4 hPa West 2.6 km/h 5.1 km/h 82 % 0 mm
23:12 -9.6 °C -11.2 °C 34635.4 hPa West 2.6 km/h 5.1 km/h 82 % 0 mm
23:17 -9.6 °C -11.2 °C 34635.4 hPa West 2.6 km/h 5.1 km/h 82 % 0 mm
23:22 -9.6 °C -11.2 °C 34635.4 hPa Calm   5.1 km/h 82 % 0 mm
23:32 -9.7 °C -11.3 °C 34635.4 hPa Calm   2.6 km/h 83 % 0 mm
23:37 -9.8 °C -11.3 °C 34635.4 hPa Calm   2.6 km/h 84 % 0 mm
23:42 -9.8 °C -11.3 °C 34635.4 hPa Calm   2.6 km/h 84 % 0 mm
23:47 -9.9 °C -11.4 °C 34635.4 hPa Calm   2.6 km/h 84 % 0 mm
23:52 -10.1 °C -11.4 °C 34635.4 hPa Calm     85 % 0 mm
Meteo18
Compliments of Weather Underground - 4 mb

Script developed by  Jim McMurry - jmcmurry@mwt.net Adapted for the template by  Wim van der Kuil - Leuven-Template.eu

You find our weather info also at:

European Weather Network

Weather Underground

Equipment we use:

Weather-station
Davis Vue

Weather-program
Meteobridge

Weather-server
Raspberry PI 2 B+

Provider
1 and 1

Davis Vue

Meteobridge

Raspberry PI 2 B+

1 and 1